createdAt,value
2022-09-04T00:02:39.434Z,1.40
2022-09-04T00:05:44.005Z,1.30
2022-09-04T00:08:19.647Z,1.55
2022-09-04T00:10:49.312Z,1.27
2022-09-04T00:13:21.904Z,1.13
2022-09-04T00:15:55.227Z,1.63
2022-09-04T00:18:46.845Z,1.50
2022-09-04T00:21:26.016Z,1.38
2022-09-04T00:24:02.704Z,1.40
2022-09-04T00:26:59.557Z,1.10
2022-09-04T00:29:38.283Z,2.17
2022-09-04T00:32:19.131Z,1.65
2022-09-04T00:34:58.235Z,1.10
2022-09-04T00:37:44.641Z,1.50
2022-09-04T00:40:32.437Z,1.40
2022-09-04T00:43:38.030Z,1.33
2022-09-04T00:49:03.920Z,1.30
2022-09-04T00:51:40.695Z,1.00
2022-09-04T00:55:07.275Z,1.33
2022-09-04T00:57:58.581Z,1.05
2022-09-04T01:00:27.873Z,1.15
2022-09-04T01:03:18.836Z,1.20
2022-09-04T01:06:03.351Z,1.15
2022-09-04T01:08:41.998Z,1.20
2022-09-04T01:11:27.991Z,1.73
2022-09-04T01:14:22.629Z,1.20
2022-09-04T01:17:11.116Z,1.50
2022-09-04T01:19:40.529Z,1.40
2022-09-04T01:22:46.192Z,1.20
2022-09-04T01:28:10.956Z,1.00
2022-09-04T01:30:54.500Z,1.23
2022-09-04T01:33:53.595Z,1.05
2022-09-04T01:36:36.029Z,1.40
2022-09-04T01:39:03.504Z,0.85
2022-09-04T01:41:38.335Z,1.00
2022-09-04T01:44:08.081Z,0.98
2022-09-04T01:46:40.681Z,1.30
2022-09-04T01:49:16.936Z,1.15
2022-09-04T01:52:00.676Z,1.48
2022-09-04T01:54:41.423Z,1.40
2022-09-04T01:57:59.152Z,1.55
2022-09-04T02:00:34.654Z,1.20
2022-09-04T02:03:46.395Z,1.20
2022-09-04T02:06:31.232Z,1.20
2022-09-04T02:09:23.176Z,2.10
2022-09-04T02:12:03.404Z,1.00
2022-09-04T02:15:22.016Z,1.33
2022-09-04T02:18:17.529Z,1.30
2022-09-04T02:21:01.947Z,1.20
2022-09-04T02:23:35.438Z,1.10
2022-09-04T02:26:37.631Z,1.42
2022-09-04T02:29:33.298Z,1.02
2022-09-04T02:32:10.518Z,1.17
2022-09-04T02:34:58.468Z,1.42
2022-09-04T02:37:51.692Z,1.10
2022-09-04T02:40:36.811Z,1.10
2022-09-04T02:43:17.537Z,1.13
2022-09-04T02:46:10.129Z,1.27
2022-09-04T02:49:00.407Z,1.27
2022-09-04T02:52:07.165Z,1.23
2022-09-04T02:54:38.525Z,1.23
2022-09-04T02:57:41.663Z,1.10
2022-09-04T03:00:18.342Z,1.35
2022-09-04T03:03:06.299Z,1.02
2022-09-04T03:08:25.505Z,1.00
2022-09-04T03:11:17.781Z,1.00
2022-09-04T03:14:07.583Z,1.30
2022-09-04T03:17:01.767Z,1.80
2022-09-04T03:19:47.428Z,1.13
2022-09-04T03:22:22.092Z,0.90
2022-09-04T03:25:26.045Z,1.10
2022-09-04T03:27:55.125Z,0.80
2022-09-04T03:30:22.036Z,1.13
2022-09-04T03:33:05.724Z,1.10
2022-09-04T03:36:09.737Z,1.00
2022-09-04T03:38:39.119Z,1.10
2022-09-04T03:41:47.720Z,1.20
2022-09-04T03:44:32.776Z,0.88
2022-09-04T03:47:09.277Z,0.77
2022-09-04T03:49:54.819Z,1.00
2022-09-04T03:52:39.337Z,1.10
2022-09-04T03:55:26.723Z,0.95
2022-09-04T03:57:58.880Z,1.02
2022-09-04T04:00:27.406Z,1.13
2022-09-04T04:03:38.811Z,0.90
2022-09-04T04:06:33.528Z,1.10
2022-09-04T04:09:02.883Z,1.20
2022-09-04T04:12:13.309Z,1.10
2022-09-04T04:15:03.504Z,1.10
2022-09-04T04:17:48.563Z,0.80
2022-09-04T04:23:21.312Z,0.98
2022-09-04T04:26:16.244Z,1.08
2022-09-04T04:29:09.182Z,1.05
2022-09-04T04:32:12.741Z,0.93
2022-09-04T04:35:04.327Z,0.80
2022-09-04T04:37:53.557Z,0.95
2022-09-04T04:40:45.440Z,1.45
2022-09-04T04:43:24.484Z,1.40
2022-09-04T04:46:15.669Z,1.30
2022-09-04T04:49:00.911Z,1.10
2022-09-04T04:51:38.388Z,1.17
2022-09-04T04:54:34.297Z,0.90
2022-09-04T04:57:13.303Z,1.00
2022-09-04T04:59:56.018Z,1.33
2022-09-04T05:02:35.955Z,1.20
2022-09-04T05:05:13.509Z,0.70
2022-09-04T05:08:03.922Z,1.05
2022-09-04T05:10:52.575Z,0.90
2022-09-04T05:13:38.261Z,1.10
2022-09-04T05:16:16.634Z,0.80
2022-09-04T05:18:57.652Z,1.15
2022-09-04T05:21:43.776Z,1.30
2022-09-04T05:24:16.595Z,0.88
2022-09-04T05:26:57.965Z,1.10
2022-09-04T05:29:47.620Z,0.98
2022-09-04T05:32:31.713Z,1.15
2022-09-04T05:35:16.443Z,1.02
2022-09-04T05:38:01.717Z,1.10
2022-09-04T05:40:30.372Z,1.15
2022-09-04T05:43:05.460Z,1.10
2022-09-04T05:45:41.428Z,1.30
2022-09-04T05:48:24.926Z,1.48
2022-09-04T05:51:52.127Z,0.98
2022-09-04T05:54:48.735Z,1.15
2022-09-04T05:57:53.774Z,1.40
2022-09-04T06:00:21.477Z,1.30
2022-09-04T06:03:07.327Z,1.15
2022-09-04T06:06:51.930Z,1.55
2022-09-04T06:09:49.536Z,1.50
2022-09-04T06:16:15.425Z,0.90
2022-09-04T06:19:11.171Z,1.08
2022-09-04T06:21:59.777Z,1.20
2022-09-04T06:25:05.181Z,0.90
2022-09-04T06:28:01.148Z,1.40
2022-09-04T06:31:00.969Z,1.27
2022-09-04T06:33:53.831Z,0.80
2022-09-04T06:36:45.509Z,1.00
2022-09-04T06:39:40.568Z,0.73
2022-09-04T06:42:34.217Z,0.80
2022-09-04T06:45:11.739Z,0.90
2022-09-04T06:47:49.457Z,0.90
2022-09-04T06:50:23.005Z,0.75
2022-09-04T06:53:20.388Z,0.57
2022-09-04T06:56:03.387Z,0.80
2022-09-04T06:58:45.852Z,0.80
2022-09-04T07:01:32.831Z,0.90
2022-09-04T07:04:05.196Z,0.77
2022-09-04T07:07:02.901Z,0.93
2022-09-04T07:09:37.341Z,0.80
2022-09-04T07:12:28.697Z,0.70
2022-09-04T07:15:34.649Z,0.90
2022-09-04T07:18:39.967Z,1.00
2022-09-04T07:21:13.251Z,0.80
2022-09-04T07:23:57.858Z,0.63
2022-09-04T07:26:54.933Z,0.52
2022-09-04T07:29:45.215Z,0.80
2022-09-04T07:32:22.891Z,0.50
2022-09-04T07:35:11.093Z,0.60
2022-09-04T07:38:08.689Z,0.60
2022-09-04T07:40:50.945Z,0.75
2022-09-04T07:43:27.746Z,0.52
2022-09-04T07:46:13.880Z,0.57
2022-09-04T07:49:12.052Z,0.40
2022-09-04T07:51:47.674Z,0.60
2022-09-04T07:54:22.982Z,0.60
2022-09-04T07:57:07.936Z,0.52
2022-09-04T07:59:47.608Z,0.68
2022-09-04T08:02:29.542Z,0.95
2022-09-04T08:05:20.966Z,1.10
2022-09-04T08:08:07.333Z,0.50
2022-09-04T08:11:10.203Z,0.50
2022-09-04T08:14:02.749Z,0.68
2022-09-04T08:16:44.663Z,0.60
2022-09-04T08:20:06.706Z,0.60
2022-09-04T08:23:10.621Z,0.40
2022-09-04T08:26:01.908Z,0.50
2022-09-04T08:28:47.089Z,0.70
2022-09-04T08:31:46.420Z,0.70
2022-09-04T08:34:16.054Z,0.47
2022-09-04T08:36:56.527Z,0.60
2022-09-04T08:39:35.436Z,0.40
2022-09-04T08:42:17.701Z,0.60
2022-09-04T08:45:13.930Z,0.40
2022-09-04T08:48:16.333Z,0.60
2022-09-04T08:51:00.952Z,0.55
2022-09-04T08:53:49.820Z,0.50
2022-09-04T08:56:34.849Z,0.50
2022-09-04T08:59:24.120Z,0.57
2022-09-04T09:02:35.523Z,0.65
2022-09-04T09:05:20.609Z,0.32
2022-09-04T09:08:26.481Z,0.50
2022-09-04T09:11:13.628Z,0.52
2022-09-04T09:14:09.528Z,0.52
2022-09-04T09:16:49.587Z,0.47
2022-09-04T09:19:57.797Z,0.40
2022-09-04T09:23:08.623Z,0.50
2022-09-04T09:25:45.611Z,0.40
2022-09-04T09:28:19.980Z,0.82
2022-09-04T09:31:10.144Z,0.30
2022-09-04T09:33:52.081Z,0.65
2022-09-04T09:36:39.027Z,0.40
2022-09-04T09:39:17.788Z,0.50
2022-09-04T09:41:59.772Z,0.40
2022-09-04T09:44:41.045Z,0.40
2022-09-04T09:47:10.965Z,0.50
2022-09-04T09:49:49.849Z,0.38
2022-09-04T09:52:18.633Z,0.40
2022-09-04T09:55:23.747Z,0.50
2022-09-04T09:58:11.128Z,0.47
2022-09-04T10:00:44.299Z,0.40
2022-09-04T10:03:40.969Z,0.40
2022-09-04T10:06:37.103Z,0.50
2022-09-04T10:09:22.624Z,0.88
2022-09-04T10:12:01.748Z,0.57
2022-09-04T10:15:02.444Z,0.60
2022-09-04T10:18:05.863Z,0.47
2022-09-04T10:20:54.138Z,0.38
2022-09-04T10:23:42.395Z,0.40
2022-09-04T10:26:12.007Z,1.75
2022-09-04T10:29:00.315Z,0.60
2022-09-04T10:31:27.248Z,0.40
2022-09-04T10:38:34.582Z,0.50
2022-09-04T10:41:31.189Z,0.52
2022-09-04T10:44:16.557Z,0.55
2022-09-04T10:47:08.150Z,0.70
2022-09-04T10:50:24.301Z,0.40
2022-09-04T10:53:06.472Z,0.40
2022-09-04T10:56:01.976Z,0.50
2022-09-04T10:58:43.261Z,0.50
2022-09-04T11:01:30.357Z,0.40
2022-09-04T11:04:30.760Z,0.50
2022-09-04T11:07:22.853Z,0.30
2022-09-04T11:10:20.643Z,0.40
2022-09-04T11:13:09.593Z,0.70
2022-09-04T11:15:42.173Z,0.55
2022-09-04T11:18:23.904Z,0.40
2022-09-04T11:21:11.921Z,0.43
2022-09-04T11:24:03.224Z,0.40
2022-09-04T11:26:47.832Z,0.57
2022-09-04T11:29:33.158Z,0.47
2022-09-04T11:32:22.365Z,0.30
2022-09-04T11:35:04.533Z,0.50
2022-09-04T11:37:49.219Z,0.50
2022-09-04T11:40:49.515Z,0.40
2022-09-04T11:43:46.780Z,0.50
2022-09-04T11:46:22.221Z,0.40
2022-09-04T11:49:09.473Z,0.43
2022-09-04T11:52:04.324Z,0.35
2022-09-04T11:54:52.878Z,0.52
2022-09-04T11:57:28.020Z,0.40
2022-09-04T12:00:07.109Z,0.40
2022-09-04T12:02:58.842Z,0.65
2022-09-04T12:05:40.549Z,0.63
2022-09-04T12:08:16.372Z,0.40
2022-09-04T12:11:32.151Z,0.52
2022-09-04T12:14:34.979Z,0.50
2022-09-04T12:17:26.431Z,0.40
2022-09-04T12:19:53.080Z,0.30
2022-09-04T12:22:52.001Z,0.40
2022-09-04T12:25:35.626Z,0.40
2022-09-04T12:28:11.199Z,0.40
2022-09-04T12:30:54.751Z,0.40
2022-09-04T12:33:32.480Z,0.30
2022-09-04T12:36:18.601Z,0.50
2022-09-04T12:38:47.423Z,0.40
2022-09-04T12:41:35.183Z,0.32
2022-09-04T12:44:01.820Z,0.40
2022-09-04T12:46:35.618Z,0.40
2022-09-04T12:49:26.363Z,0.50
2022-09-04T12:52:19.345Z,0.35
2022-09-04T12:55:14.875Z,0.45
2022-09-04T12:57:50.585Z,0.25
2022-09-04T13:00:18.370Z,0.50
2022-09-04T13:02:57.506Z,0.50
2022-09-04T13:05:53.495Z,0.38
2022-09-04T13:08:36.629Z,0.45
2022-09-04T13:11:22.003Z,0.50
2022-09-04T13:13:56.853Z,0.50
2022-09-04T13:16:34.513Z,0.57
2022-09-04T13:19:28.708Z,0.30
2022-09-04T13:22:07.178Z,0.50
2022-09-04T13:24:44.123Z,0.50
2022-09-04T13:27:48.400Z,0.60
2022-09-04T13:30:24.677Z,0.40
2022-09-04T13:33:12.795Z,0.47
2022-09-04T13:35:43.939Z,0.43
2022-09-04T13:38:43.106Z,0.35
2022-09-04T13:41:36.411Z,0.30
2022-09-04T13:44:16.375Z,0.57
2022-09-04T13:47:11.433Z,0.40
2022-09-04T13:52:42.836Z,0.43
2022-09-04T13:55:33.332Z,0.60
2022-09-04T13:58:23.846Z,0.35
2022-09-04T14:01:03.180Z,0.68
2022-09-04T14:03:59.475Z,0.52
2022-09-04T14:06:30.229Z,0.35
2022-09-04T14:09:04.608Z,0.40
2022-09-04T14:11:58.816Z,0.40
2022-09-04T14:14:59.817Z,0.40
2022-09-04T14:17:56.011Z,0.75
2022-09-04T14:20:42.539Z,0.40
2022-09-04T14:23:50.363Z,0.40
2022-09-04T14:26:44.255Z,0.60
2022-09-04T14:29:19.548Z,0.47
2022-09-04T14:32:01.149Z,0.30
2022-09-04T14:34:52.280Z,0.40
2022-09-04T14:37:48.460Z,0.63
2022-09-04T14:40:20.160Z,0.30
2022-09-04T14:42:58.419Z,0.75
2022-09-04T14:45:51.988Z,0.30
2022-09-04T14:48:24.417Z,0.38
2022-09-04T14:50:54.527Z,0.40
2022-09-04T14:53:46.192Z,0.30
2022-09-04T14:56:13.018Z,0.57
2022-09-04T14:58:47.740Z,0.47
2022-09-04T15:01:20.815Z,0.57
2022-09-04T15:04:11.208Z,0.40
2022-09-04T15:07:07.901Z,0.60
2022-09-04T15:09:41.554Z,0.47
2022-09-04T15:12:32.674Z,0.30
2022-09-04T15:15:10.864Z,0.30
2022-09-04T15:17:47.194Z,0.32
2022-09-04T15:20:24.401Z,0.30
2022-09-04T15:22:56.917Z,0.28
2022-09-04T15:25:59.598Z,0.60
2022-09-04T15:28:46.443Z,0.40
2022-09-04T15:31:17.656Z,0.60
2022-09-04T15:33:47.489Z,0.47
2022-09-04T15:36:22.773Z,0.57
2022-09-04T15:38:53.980Z,0.40
2022-09-04T15:41:27.084Z,0.45
2022-09-04T15:44:18.720Z,0.40
2022-09-04T15:46:58.767Z,0.50
2022-09-04T15:49:51.052Z,0.47
2022-09-04T15:52:30.325Z,0.30
2022-09-04T15:55:22.512Z,0.40
2022-09-04T15:57:58.880Z,0.40
2022-09-04T16:00:31.837Z,0.40
2022-09-04T16:03:17.501Z,0.40
2022-09-04T16:05:49.504Z,0.73
2022-09-04T16:08:20.992Z,0.47
2022-09-04T16:10:47.968Z,0.43
2022-09-04T16:13:27.200Z,0.80
2022-09-04T16:16:04.001Z,1.02
2022-09-04T16:18:52.260Z,0.90
2022-09-04T16:21:40.589Z,1.00
2022-09-04T16:24:21.759Z,0.90
2022-09-04T16:26:53.074Z,0.73
2022-09-04T16:29:28.320Z,0.50
2022-09-04T16:31:57.808Z,0.70
2022-09-04T16:34:36.622Z,0.50
2022-09-04T16:37:19.477Z,0.40
2022-09-04T16:40:24.444Z,0.70
2022-09-04T16:43:09.947Z,0.63
2022-09-04T16:45:45.687Z,0.50
2022-09-04T16:48:34.674Z,0.50
2022-09-04T16:51:40.419Z,0.65
2022-09-04T16:54:10.872Z,0.50
2022-09-04T16:56:40.649Z,0.60
2022-09-04T16:59:22.981Z,0.55
2022-09-04T17:01:59.515Z,0.50
2022-09-04T17:04:47.047Z,0.60
2022-09-04T17:07:31.265Z,0.45
2022-09-04T17:10:46.128Z,0.85
2022-09-04T17:13:27.944Z,0.60
2022-09-04T17:16:14.604Z,1.27
2022-09-04T17:18:48.451Z,0.90
2022-09-04T17:26:55.885Z,0.63
2022-09-04T17:28:58.403Z,0.82
2022-09-04T17:29:11.129Z,0.75
2022-09-04T17:30:25.799Z,1.13
2022-09-04T17:38:12.198Z,0.80
2022-09-04T17:40:38.663Z,0.70
2022-09-04T17:40:50.439Z,0.98
2022-09-04T17:42:21.447Z,0.93
2022-09-04T17:45:02.320Z,0.65
2022-09-04T17:47:42.966Z,0.80
2022-09-04T17:50:19.450Z,0.80
2022-09-04T17:53:04.037Z,0.80
2022-09-04T17:55:39.201Z,0.88
2022-09-04T17:58:37.493Z,1.10
2022-09-04T18:01:25.274Z,2.25
2022-09-04T18:04:20.922Z,1.83
2022-09-04T18:06:57.700Z,1.25
2022-09-04T18:09:40.231Z,0.90
2022-09-04T18:12:25.004Z,0.93
2022-09-04T18:15:27.563Z,0.90
2022-09-04T18:18:00.805Z,1.20
2022-09-04T18:20:42.787Z,0.80
2022-09-04T18:23:51.010Z,0.77
2022-09-04T18:26:40.036Z,0.90
2022-09-04T18:30:58.588Z,0.77
2022-09-04T18:37:06.670Z,0.88
2022-09-04T18:37:26.561Z,1.20
2022-09-04T18:39:08.074Z,0.77
2022-09-04T18:50:23.363Z,1.08
2022-09-04T18:50:46.485Z,0.93
2022-09-04T18:50:47.145Z,1.05
